createdAt,value
2022-08-21T00:01:52.227Z,2.83
2022-08-21T00:04:22.420Z,2.97
2022-08-21T00:06:51.980Z,3.03
2022-08-21T00:09:20.643Z,3.20
2022-08-21T00:11:50.354Z,2.72
2022-08-21T00:14:20.665Z,3.08
2022-08-21T00:16:47.788Z,3.10
2022-08-21T00:19:14.897Z,3.63
2022-08-21T00:21:44.294Z,3.20
2022-08-21T00:24:14.863Z,3.08
2022-08-21T00:26:41.970Z,3.22
2022-08-21T00:29:09.746Z,3.13
2022-08-21T00:31:39.372Z,3.30
2022-08-21T00:34:07.869Z,3.40
2022-08-21T00:36:36.245Z,3.35
2022-08-21T00:39:07.527Z,4.00
2022-08-21T00:41:37.029Z,3.55
2022-08-21T00:44:12.265Z,4.30
2022-08-21T00:46:42.757Z,3.90
2022-08-21T00:49:12.606Z,3.80
2022-08-21T00:51:54.617Z,3.40
2022-08-21T00:54:28.189Z,3.67
2022-08-21T00:56:59.821Z,4.00
2022-08-21T00:59:31.520Z,4.45
2022-08-21T01:01:58.568Z,3.95
2022-08-21T01:04:28.292Z,4.20
2022-08-21T01:06:56.140Z,4.40
2022-08-21T01:09:23.281Z,4.60
2022-08-21T01:11:50.668Z,3.83
2022-08-21T01:14:23.900Z,4.47
2022-08-21T01:16:53.895Z,4.40
2022-08-21T01:19:22.898Z,4.90
2022-08-21T01:21:50.109Z,4.80
2022-08-21T01:24:17.215Z,4.65
2022-08-21T01:26:47.289Z,4.47
2022-08-21T01:29:32.904Z,5.15
2022-08-21T01:32:04.421Z,5.43
2022-08-21T01:34:32.597Z,4.88
2022-08-21T01:36:59.661Z,4.78
2022-08-21T01:39:26.861Z,5.32
2022-08-21T01:41:54.101Z,5.22
2022-08-21T01:44:25.263Z,5.47
2022-08-21T01:46:53.548Z,5.88
2022-08-21T01:49:21.074Z,5.43
2022-08-21T01:51:50.584Z,5.30
2022-08-21T01:54:17.982Z,4.90
2022-08-21T01:56:49.640Z,4.60
2022-08-21T01:59:17.194Z,4.95
2022-08-21T02:01:47.111Z,4.57
2022-08-21T02:04:16.275Z,4.65
2022-08-21T02:06:43.901Z,4.38
2022-08-21T02:09:12.632Z,3.70
2022-08-21T02:11:45.459Z,4.07
2022-08-21T02:14:15.380Z,4.55
2022-08-21T02:17:09.001Z,4.68
2022-08-21T02:19:40.177Z,4.80
2022-08-21T02:22:10.705Z,5.18
2022-08-21T02:24:53.839Z,5.25
2022-08-21T02:27:27.274Z,4.43
2022-08-21T02:29:59.607Z,4.00
2022-08-21T02:32:27.122Z,4.97
2022-08-21T02:34:56.436Z,4.35
2022-08-21T02:37:24.767Z,4.45
2022-08-21T02:39:51.945Z,3.95
2022-08-21T02:42:19.190Z,4.07
2022-08-21T02:44:46.411Z,4.00
2022-08-21T02:47:15.142Z,4.50
2022-08-21T02:49:42.155Z,4.47
2022-08-21T02:52:09.423Z,4.07
2022-08-21T02:54:36.456Z,4.45
2022-08-21T02:57:03.629Z,4.38
2022-08-21T02:59:33.269Z,3.75
2022-08-21T03:02:00.521Z,3.65
2022-08-21T03:04:29.788Z,3.50
2022-08-21T03:06:56.962Z,3.63
2022-08-21T03:09:23.949Z,3.42
2022-08-21T03:11:52.403Z,3.25
2022-08-21T03:14:19.781Z,3.90
2022-08-21T03:16:47.109Z,2.90
2022-08-21T03:19:14.497Z,3.33
2022-08-21T03:21:43.890Z,3.50
2022-08-21T03:24:10.936Z,3.67
2022-08-21T03:26:38.413Z,3.90
2022-08-21T03:29:08.635Z,3.70
2022-08-21T03:31:35.709Z,3.75
2022-08-21T03:34:02.777Z,3.65
2022-08-21T03:36:30.204Z,3.45
2022-08-21T03:38:59.929Z,3.67
2022-08-21T03:41:27.074Z,3.28
2022-08-21T03:43:54.650Z,3.17
2022-08-21T03:46:21.702Z,3.05
2022-08-21T03:48:49.090Z,2.97
2022-08-21T03:51:16.698Z,3.13
2022-08-21T03:53:46.152Z,3.42
2022-08-21T03:56:13.404Z,3.63
2022-08-21T03:58:40.715Z,3.22
2022-08-21T04:01:07.821Z,3.15
2022-08-21T04:03:36.973Z,2.95
2022-08-21T04:06:05.196Z,2.88
2022-08-21T04:08:32.340Z,3.00
2022-08-21T04:10:59.716Z,3.20
2022-08-21T04:13:29.204Z,2.92
2022-08-21T04:16:02.206Z,3.28
2022-08-21T04:18:29.580Z,3.10
2022-08-21T04:20:59.552Z,3.10
2022-08-21T04:23:27.725Z,3.13
2022-08-21T04:25:56.645Z,3.40
2022-08-21T04:28:28.939Z,2.95
2022-08-21T04:30:57.529Z,3.00
2022-08-21T04:33:25.417Z,3.05
2022-08-21T04:35:52.455Z,3.83
2022-08-21T04:38:20.022Z,3.50
2022-08-21T04:40:49.428Z,3.50
2022-08-21T04:43:16.679Z,3.63
2022-08-21T04:45:48.415Z,3.38
2022-08-21T04:48:25.191Z,3.55
2022-08-21T04:50:56.039Z,4.03
2022-08-21T04:53:33.442Z,3.67
2022-08-21T04:56:11.018Z,4.55
2022-08-21T04:58:43.532Z,4.40
2022-08-21T05:01:17.137Z,4.15
2022-08-21T05:03:45.891Z,4.10
2022-08-21T05:06:16.137Z,3.90
2022-08-21T05:08:46.995Z,3.75
2022-08-21T05:11:14.338Z,3.63
2022-08-21T05:13:44.067Z,3.30
2022-08-21T05:16:11.182Z,3.40
2022-08-21T05:18:40.683Z,3.75
2022-08-21T05:21:11.020Z,3.30
2022-08-21T05:23:38.773Z,3.70
2022-08-21T05:26:06.455Z,3.50
2022-08-21T05:28:33.432Z,3.38
2022-08-21T05:31:00.448Z,3.55
2022-08-21T05:33:27.936Z,3.03
2022-08-21T05:35:58.165Z,2.78
2022-08-21T05:38:29.810Z,3.60
2022-08-21T05:40:57.094Z,3.45
2022-08-21T05:43:24.399Z,3.33
2022-08-21T05:45:51.683Z,3.42
2022-08-21T05:48:22.619Z,3.40
2022-08-21T05:50:52.788Z,3.58
2022-08-21T05:53:22.189Z,3.30
2022-08-21T05:55:51.190Z,3.35
2022-08-21T05:58:21.886Z,3.13
2022-08-21T06:00:51.135Z,3.58
2022-08-21T06:03:26.012Z,3.30
2022-08-21T06:05:56.717Z,3.30
2022-08-21T06:08:24.577Z,3.70
2022-08-21T06:10:53.272Z,3.30
2022-08-21T06:13:21.913Z,3.38
2022-08-21T06:16:01.651Z,3.40
2022-08-21T06:18:28.909Z,3.65
2022-08-21T06:20:56.482Z,3.80
2022-08-21T06:23:33.111Z,3.30
2022-08-21T06:26:02.702Z,3.28
2022-08-21T06:28:29.710Z,3.28
2022-08-21T06:30:56.770Z,3.40
2022-08-21T06:33:31.915Z,3.13
2022-08-21T06:36:01.217Z,3.60
2022-08-21T06:38:30.766Z,3.40
2022-08-21T06:40:59.102Z,3.30
2022-08-21T06:43:37.851Z,3.28
2022-08-21T06:46:11.324Z,2.90
2022-08-21T06:48:39.251Z,3.50
2022-08-21T06:51:08.660Z,3.30
2022-08-21T06:53:36.198Z,3.35
2022-08-21T06:56:05.992Z,3.53
2022-08-21T06:58:33.549Z,3.55
2022-08-21T07:01:01.723Z,3.55
2022-08-21T07:03:32.062Z,3.90
2022-08-21T07:06:02.592Z,3.53
2022-08-21T07:08:33.406Z,3.40
2022-08-21T07:11:02.742Z,3.88
2022-08-21T07:13:30.956Z,3.92
2022-08-21T07:16:03.158Z,3.70
2022-08-21T07:18:32.167Z,3.65
2022-08-21T07:20:59.473Z,3.83
2022-08-21T07:23:31.614Z,3.45
2022-08-21T07:26:01.550Z,3.90
2022-08-21T07:28:29.546Z,3.67
2022-08-21T07:30:59.512Z,3.83
2022-08-21T07:33:28.858Z,4.00
2022-08-21T07:35:56.218Z,3.60
2022-08-21T07:38:24.507Z,4.15
2022-08-21T07:40:55.139Z,3.90
2022-08-21T07:43:22.718Z,3.70
2022-08-21T07:45:54.995Z,4.13
2022-08-21T07:48:25.420Z,3.70
2022-08-21T07:50:52.567Z,3.67
2022-08-21T07:53:30.876Z,4.07
2022-08-21T07:56:07.157Z,3.95
2022-08-21T07:58:34.468Z,4.40
2022-08-21T08:01:02.251Z,4.30
2022-08-21T08:03:29.728Z,3.83
2022-08-21T08:05:57.923Z,3.65
2022-08-21T08:08:26.499Z,3.40
2022-08-21T08:10:58.226Z,3.40
2022-08-21T08:13:26.113Z,3.92
2022-08-21T08:15:53.476Z,3.90
2022-08-21T08:18:23.279Z,4.00
2022-08-21T08:20:50.496Z,4.18
2022-08-21T08:23:19.739Z,4.13
2022-08-21T08:25:47.552Z,4.03
2022-08-21T08:28:17.192Z,4.40
2022-08-21T08:30:47.892Z,4.22
2022-08-21T08:33:15.896Z,4.28
2022-08-21T08:35:51.182Z,4.20
2022-08-21T08:38:23.828Z,4.30
2022-08-21T08:40:52.776Z,4.35
2022-08-21T08:43:20.506Z,4.50
2022-08-21T08:45:52.049Z,4.40
2022-08-21T08:48:38.911Z,4.40
2022-08-21T08:51:12.091Z,4.50
2022-08-21T08:54:00.730Z,4.53
2022-08-21T08:56:34.748Z,4.50
2022-08-21T08:59:21.363Z,4.30
2022-08-21T09:01:48.928Z,4.72
2022-08-21T09:04:22.602Z,4.95
2022-08-21T09:07:02.944Z,4.82
2022-08-21T09:09:51.658Z,4.72
2022-08-21T09:12:52.544Z,4.72
2022-08-21T09:15:51.920Z,4.50
2022-08-21T09:18:25.565Z,4.63
2022-08-21T09:21:26.984Z,4.18
2022-08-21T09:24:16.641Z,4.45
2022-08-21T09:26:49.495Z,4.82
2022-08-21T09:29:21.733Z,5.05
2022-08-21T09:31:49.169Z,4.63
2022-08-21T09:34:30.029Z,3.83
2022-08-21T09:36:58.392Z,4.43
2022-08-21T09:39:33.221Z,3.75
2022-08-21T09:42:11.045Z,3.60
2022-08-21T09:44:44.449Z,3.65
2022-08-21T09:47:16.082Z,3.15
2022-08-21T09:49:44.686Z,3.33
2022-08-21T09:52:22.929Z,2.88
2022-08-21T09:54:56.066Z,2.88
2022-08-21T09:57:46.283Z,2.78
2022-08-21T10:00:22.970Z,2.83
2022-08-21T10:02:50.095Z,2.90
2022-08-21T10:05:23.899Z,2.97
2022-08-21T10:07:53.701Z,2.80
2022-08-21T10:10:26.944Z,3.13
2022-08-21T10:12:57.465Z,3.03
2022-08-21T10:15:48.477Z,2.92
2022-08-21T10:18:40.262Z,3.00
2022-08-21T10:21:15.721Z,2.97
2022-08-21T10:23:48.263Z,3.13
2022-08-21T10:26:24.259Z,3.30
2022-08-21T10:29:36.363Z,3.20
2022-08-21T10:32:26.047Z,3.45
2022-08-21T10:35:02.776Z,3.53
2022-08-21T10:38:02.386Z,3.17
2022-08-21T10:40:48.950Z,3.83
2022-08-21T10:43:44.071Z,3.97
2022-08-21T10:46:20.069Z,3.45
2022-08-21T10:49:03.752Z,3.60
2022-08-21T10:51:47.864Z,3.45
2022-08-21T10:54:23.606Z,3.28
2022-08-21T10:57:00.524Z,3.08
2022-08-21T10:59:38.543Z,2.75
2022-08-21T11:04:55.156Z,1.80
2022-08-21T11:07:34.117Z,2.30
2022-08-21T11:10:14.161Z,1.80
2022-08-21T11:12:46.007Z,2.00
2022-08-21T11:15:52.453Z,2.20
2022-08-21T11:18:29.324Z,1.67
2022-08-21T11:21:08.457Z,2.00
2022-08-21T11:23:45.295Z,1.50
2022-08-21T11:26:22.278Z,1.45
2022-08-21T11:28:55.867Z,1.30
2022-08-21T11:31:43.602Z,1.33
2022-08-21T11:34:24.650Z,1.35
2022-08-21T11:37:08.507Z,1.30
2022-08-21T11:39:44.925Z,1.40
2022-08-21T11:42:15.096Z,1.42
2022-08-21T11:44:50.702Z,1.60
2022-08-21T11:47:32.684Z,1.58
2022-08-21T11:50:05.974Z,1.45
2022-08-21T11:53:24.547Z,1.50
2022-08-21T11:56:00.759Z,1.30
2022-08-21T11:58:34.028Z,1.67
2022-08-21T12:01:07.065Z,1.33
2022-08-21T12:03:37.478Z,1.20
2022-08-21T12:06:13.956Z,1.20
2022-08-21T12:09:03.003Z,1.13
2022-08-21T12:11:30.956Z,1.33
2022-08-21T12:14:17.176Z,1.27
2022-08-21T12:16:50.125Z,1.08
2022-08-21T12:19:28.357Z,1.05
2022-08-21T12:21:58.592Z,1.08
2022-08-21T12:24:29.330Z,1.10
2022-08-21T12:26:59.921Z,1.30
2022-08-21T12:29:32.659Z,1.30
2022-08-21T12:32:11.223Z,1.25
2022-08-21T12:35:15.601Z,1.15
2022-08-21T12:38:04.590Z,1.67
2022-08-21T12:40:46.925Z,1.30
2022-08-21T12:43:19.811Z,1.45
2022-08-21T12:45:52.098Z,1.25
2022-08-21T12:48:33.151Z,1.40
2022-08-21T12:51:12.255Z,1.30
2022-08-21T12:53:51.683Z,1.55
2022-08-21T12:56:21.760Z,1.35
2022-08-21T12:58:57.757Z,1.20
2022-08-21T13:01:30.062Z,1.38
2022-08-21T13:04:04.936Z,1.50
2022-08-21T13:06:41.433Z,1.50
2022-08-21T13:09:18.412Z,1.17
2022-08-21T13:11:50.288Z,1.63
2022-08-21T13:14:45.151Z,1.35
2022-08-21T13:17:23.416Z,1.30
2022-08-21T13:19:57.953Z,1.48
2022-08-21T13:22:33.409Z,1.48
2022-08-21T13:25:06.776Z,1.50
2022-08-21T13:27:35.480Z,1.50
2022-08-21T13:30:23.704Z,1.40
2022-08-21T13:32:54.161Z,1.30
2022-08-21T13:35:24.993Z,1.50
2022-08-21T13:37:53.608Z,1.30
2022-08-21T13:40:26.916Z,1.40
2022-08-21T13:42:55.050Z,1.40
2022-08-21T13:45:34.030Z,1.40
2022-08-21T13:48:06.327Z,1.70
2022-08-21T13:50:36.290Z,1.58
2022-08-21T13:53:07.044Z,1.38
2022-08-21T13:55:43.229Z,1.58
2022-08-21T13:58:12.382Z,1.33
2022-08-21T14:00:49.923Z,1.73
2022-08-21T14:03:35.369Z,1.33
2022-08-21T14:06:02.927Z,1.38
2022-08-21T14:08:44.128Z,1.40
2022-08-21T14:11:13.840Z,1.50
2022-08-21T14:13:42.636Z,1.60
2022-08-21T14:16:46.784Z,1.38
2022-08-21T14:19:20.037Z,1.58
2022-08-21T14:21:47.242Z,1.65
2022-08-21T14:24:26.668Z,1.60
2022-08-21T14:26:54.973Z,1.50
2022-08-21T14:29:26.671Z,1.30
2022-08-21T14:32:03.472Z,1.83
2022-08-21T14:34:35.925Z,1.95
2022-08-21T14:37:03.563Z,2.00
2022-08-21T14:39:33.508Z,2.10
2022-08-21T14:42:02.052Z,1.77
2022-08-21T14:44:29.097Z,1.92
2022-08-21T14:47:02.036Z,2.20
2022-08-21T14:49:29.855Z,2.20
2022-08-21T14:51:58.898Z,2.17
2022-08-21T14:54:30.700Z,2.40
2022-08-21T14:57:11.085Z,2.10
2022-08-21T14:59:38.839Z,2.35
2022-08-21T15:02:08.033Z,2.17
2022-08-21T15:04:38.088Z,2.20
2022-08-21T15:07:05.284Z,2.40
2022-08-21T15:09:32.435Z,2.45
2022-08-21T15:12:02.208Z,2.28
2022-08-21T15:14:33.280Z,2.25
2022-08-21T15:17:00.660Z,2.50
2022-08-21T15:19:31.223Z,2.30
2022-08-21T15:21:58.693Z,2.03
2022-08-21T15:24:27.024Z,2.63
2022-08-21T15:26:55.746Z,2.60
2022-08-21T15:29:23.095Z,2.17
2022-08-21T15:31:53.433Z,2.30
2022-08-21T15:34:23.032Z,2.40
2022-08-21T15:36:58.671Z,2.55
2022-08-21T15:39:30.058Z,2.40
2022-08-21T15:42:02.816Z,2.53
2022-08-21T15:44:41.009Z,2.28
2022-08-21T15:47:16.240Z,2.20
2022-08-21T15:49:46.440Z,2.63
2022-08-21T15:52:19.052Z,2.40
2022-08-21T15:54:46.564Z,2.45
2022-08-21T15:57:16.230Z,2.03
2022-08-21T15:59:48.314Z,2.47
2022-08-21T16:02:28.675Z,2.55
2022-08-21T16:04:57.452Z,2.70
2022-08-21T16:07:26.710Z,2.78
2022-08-21T16:09:53.827Z,2.40
2022-08-21T16:12:33.506Z,2.35
2022-08-21T16:15:02.503Z,2.65
2022-08-21T16:17:34.320Z,2.60
2022-08-21T16:20:08.014Z,3.03
2022-08-21T16:22:44.398Z,2.38
2022-08-21T16:25:17.536Z,2.72
2022-08-21T16:27:49.053Z,2.60
2022-08-21T16:30:18.492Z,2.33
2022-08-21T16:32:46.258Z,2.63
2022-08-21T16:35:16.495Z,2.55
2022-08-21T16:37:48.923Z,2.28
2022-08-21T16:40:20.745Z,2.60
2022-08-21T16:42:48.801Z,2.30
2022-08-21T16:45:18.493Z,2.35
2022-08-21T16:47:45.877Z,2.60
2022-08-21T16:50:20.417Z,2.53
2022-08-21T16:52:47.820Z,2.47
2022-08-21T16:55:15.251Z,2.33
2022-08-21T16:57:44.707Z,2.40
2022-08-21T17:00:13.265Z,2.30
2022-08-21T17:02:47.259Z,2.40
2022-08-21T17:05:15.072Z,2.63
2022-08-21T17:07:44.359Z,2.20
2022-08-21T17:10:14.322Z,2.42
2022-08-21T17:12:43.386Z,2.42
2022-08-21T17:15:21.321Z,2.10
2022-08-21T17:17:49.963Z,2.15
2022-08-21T17:20:18.318Z,2.50
2022-08-21T17:22:45.381Z,2.15
2022-08-21T17:25:12.735Z,2.10
2022-08-21T17:27:41.147Z,1.90
2022-08-21T17:30:09.028Z,2.00
2022-08-21T17:32:37.462Z,2.20
2022-08-21T17:35:05.802Z,2.08
2022-08-21T17:37:37.664Z,2.28
2022-08-21T17:40:13.218Z,2.08
2022-08-21T17:42:44.403Z,2.00
2022-08-21T17:45:15.262Z,2.20
2022-08-21T17:47:49.403Z,2.38
2022-08-21T17:50:22.604Z,2.38
2022-08-21T17:52:50.435Z,2.40
2022-08-21T17:55:20.358Z,2.10
2022-08-21T17:57:50.238Z,2.45
2022-08-21T18:00:19.500Z,2.03
2022-08-21T18:02:51.227Z,2.10
2022-08-21T18:05:18.415Z,2.50
2022-08-21T18:07:45.675Z,2.47
2022-08-21T18:10:13.055Z,2.58
2022-08-21T18:12:43.123Z,2.53
2022-08-21T18:15:14.228Z,2.60
2022-08-21T18:17:46.855Z,2.25
2022-08-21T18:20:19.072Z,2.13
2022-08-21T18:22:49.037Z,2.20
2022-08-21T18:25:17.531Z,2.30
2022-08-21T18:27:46.609Z,2.78
2022-08-21T18:30:19.451Z,2.60
2022-08-21T18:32:50.043Z,2.33
2022-08-21T18:35:17.888Z,2.05
2022-08-21T18:37:45.106Z,2.50
2022-08-21T18:40:13.076Z,2.83
2022-08-21T18:42:55.015Z,2.60
2022-08-21T18:45:25.045Z,2.38
2022-08-21T18:47:57.314Z,2.50
2022-08-21T18:50:27.368Z,2.50
2022-08-21T18:52:57.345Z,2.22
2022-08-21T18:55:30.409Z,2.60
2022-08-21T18:57:58.244Z,2.60
2022-08-21T19:00:33.636Z,2.15
2022-08-21T19:03:01.899Z,2.15
2022-08-21T19:05:33.767Z,2.28
2022-08-21T19:08:06.525Z,2.60
2022-08-21T19:10:34.056Z,2.50
2022-08-21T19:13:02.308Z,2.58
2022-08-21T19:15:30.795Z,2.33
2022-08-21T19:17:59.112Z,2.50
2022-08-21T19:20:35.143Z,2.58
2022-08-21T19:23:07.588Z,2.70
2022-08-21T19:25:39.740Z,2.40
2022-08-21T19:28:13.082Z,2.75
2022-08-21T19:30:47.912Z,2.55
2022-08-21T19:33:29.815Z,2.20
2022-08-21T19:35:57.474Z,2.85
2022-08-21T19:38:25.368Z,2.47
2022-08-21T19:40:54.018Z,2.97
2022-08-21T19:43:24.284Z,2.53
2022-08-21T19:45:58.339Z,2.22
2022-08-21T19:48:26.776Z,2.20
2022-08-21T19:50:54.304Z,2.42
2022-08-21T19:53:21.563Z,2.80
2022-08-21T19:55:49.176Z,3.20
2022-08-21T19:58:32.936Z,2.60
2022-08-21T20:01:16.424Z,2.53
2022-08-21T20:03:54.113Z,2.65
2022-08-21T20:06:24.051Z,2.83
2022-08-21T20:08:55.054Z,3.28
2022-08-21T20:11:31.532Z,2.78
2022-08-21T20:14:20.223Z,2.80
2022-08-21T20:16:52.643Z,2.70
2022-08-21T20:19:24.473Z,2.90
2022-08-21T20:21:55.453Z,2.78
2022-08-21T20:24:27.305Z,3.13
2022-08-21T20:26:55.604Z,2.97
2022-08-21T20:29:35.086Z,3.10
2022-08-21T20:32:08.079Z,3.10
2022-08-21T20:34:40.240Z,3.20
2022-08-21T20:37:09.229Z,3.40
2022-08-21T20:39:38.856Z,4.07
2022-08-21T20:42:10.267Z,3.63
2022-08-21T20:44:38.453Z,3.55
2022-08-21T20:47:15.927Z,3.80
2022-08-21T20:49:48.197Z,3.70
2022-08-21T20:52:18.055Z,3.88
2022-08-21T20:54:57.361Z,3.83
2022-08-21T20:57:52.865Z,3.88
2022-08-21T21:00:23.409Z,4.45
2022-08-21T21:03:00.690Z,4.03
2022-08-21T21:05:40.483Z,4.32
2022-08-21T21:08:15.681Z,3.83
2022-08-21T21:14:29.556Z,4.25
2022-08-21T21:17:01.572Z,4.75
2022-08-21T21:19:28.549Z,4.60
2022-08-21T21:22:13.494Z,5.10
2022-08-21T21:25:13.004Z,4.95
2022-08-21T21:27:49.255Z,5.20
2022-08-21T21:30:47.098Z,5.20
2022-08-21T21:33:25.907Z,5.47
2022-08-21T21:36:22.935Z,5.65
2022-08-21T21:39:07.990Z,5.05
2022-08-21T21:42:10.784Z,5.82
2022-08-21T21:45:10.598Z,5.85
2022-08-21T21:48:14.046Z,6.07
2022-08-21T21:54:06.811Z,5.43
2022-08-21T21:57:00.563Z,5.55
2022-08-21T21:59:58.528Z,5.80
2022-08-21T22:02:58.766Z,6.03
2022-08-21T22:05:39.416Z,6.00
2022-08-21T22:08:19.423Z,5.45
2022-08-21T22:11:00.308Z,5.30
2022-08-21T22:13:53.260Z,5.63
2022-08-21T22:16:22.960Z,4.80
2022-08-21T22:18:56.412Z,4.93
2022-08-21T22:21:30.227Z,4.70
2022-08-21T22:24:16.901Z,4.90
2022-08-21T22:26:54.704Z,4.38
2022-08-21T22:29:23.361Z,4.82
2022-08-21T22:32:10.529Z,5.07
2022-08-21T22:34:41.223Z,4.97
2022-08-21T22:37:12.141Z,5.80
2022-08-21T22:39:43.885Z,6.15
2022-08-21T22:42:23.888Z,6.05
2022-08-21T22:44:54.699Z,6.68
2022-08-21T22:47:25.807Z,6.85
2022-08-21T22:49:54.729Z,6.88
2022-08-21T22:52:24.831Z,7.75
2022-08-21T22:54:58.346Z,7.35
2022-08-21T22:57:30.776Z,7.30
2022-08-21T23:00:13.538Z,7.55
2022-08-21T23:02:49.789Z,6.50
2022-08-21T23:05:25.375Z,5.93
2022-08-21T23:07:53.118Z,5.65
2022-08-21T23:10:34.184Z,5.30
2022-08-21T23:13:09.458Z,5.45
2022-08-21T23:16:10.144Z,5.75
2022-08-21T23:19:01.412Z,6.03
2022-08-21T23:24:19.420Z,5.10
2022-08-21T23:26:59.154Z,5.97
2022-08-21T23:29:45.697Z,6.05
2022-08-21T23:32:44.599Z,6.40
2022-08-21T23:35:44.666Z,6.43
2022-08-21T23:38:46.607Z,6.03
2022-08-21T23:41:42.864Z,6.10
2022-08-21T23:47:19.187Z,6.20
2022-08-21T23:50:14.199Z,6.35
2022-08-21T23:52:54.087Z,5.82
2022-08-21T23:55:46.466Z,7.60
2022-08-21T23:58:25.906Z,7.00
